createdAt,value
2019-01-11T00:02:25.429Z,5.22
2019-01-11T00:04:55.113Z,5.15
2019-01-11T00:07:24.583Z,5.60
2019-01-11T00:09:54.767Z,6.67
2019-01-11T00:12:24.287Z,5.75
2019-01-11T00:14:54.068Z,5.87
2019-01-11T00:17:23.517Z,6.72
2019-01-11T00:19:53.501Z,6.35
2019-01-11T00:22:23.386Z,5.78
2019-01-11T00:24:53.464Z,6.28
2019-01-11T00:27:23.039Z,7.72
2019-01-11T00:29:52.564Z,8.63
2019-01-11T00:32:21.969Z,8.08
2019-01-11T00:34:51.545Z,7.10
2019-01-11T00:37:20.970Z,7.37
2019-01-11T00:39:50.504Z,8.03
2019-01-11T00:42:20.038Z,7.92
2019-01-11T00:44:49.475Z,7.70
2019-01-11T00:47:18.982Z,10.82
2019-01-11T00:49:48.613Z,9.40
2019-01-11T00:52:18.095Z,5.95
2019-01-11T00:54:47.693Z,6.45
2019-01-11T00:57:17.263Z,7.70
2019-01-11T00:59:46.805Z,11.28
2019-01-11T01:02:16.323Z,7.60
2019-01-11T01:04:45.879Z,7.70
2019-01-11T01:07:15.549Z,6.58
2019-01-11T01:09:45.042Z,6.83
2019-01-11T01:12:14.486Z,7.58
2019-01-11T01:14:43.923Z,9.45
2019-01-11T01:17:13.481Z,7.78
2019-01-11T01:19:43.177Z,9.30
2019-01-11T01:22:13.334Z,8.75
2019-01-11T01:24:43.045Z,7.45
2019-01-11T01:27:12.621Z,8.33
2019-01-11T01:29:42.106Z,9.00
2019-01-11T01:32:12.897Z,7.45
2019-01-11T01:34:42.357Z,9.58
2019-01-11T01:37:11.867Z,8.05
2019-01-11T01:39:41.603Z,8.45
2019-01-11T01:42:11.082Z,8.68
2019-01-11T01:44:40.546Z,10.58
2019-01-11T01:47:10.018Z,9.80
2019-01-11T01:49:39.435Z,9.95
2019-01-11T01:52:09.005Z,9.90
2019-01-11T01:54:38.595Z,10.20
2019-01-11T01:57:08.092Z,10.53
2019-01-11T01:59:37.611Z,11.08
2019-01-11T02:02:07.332Z,9.73
2019-01-11T02:04:36.808Z,13.80
2019-01-11T02:07:06.314Z,12.85
2019-01-11T02:09:35.823Z,11.18
2019-01-11T02:12:05.653Z,10.82
2019-01-11T02:14:35.070Z,10.93
2019-01-11T02:17:04.678Z,9.78
2019-01-11T02:19:34.149Z,9.13
2019-01-11T02:22:04.477Z,9.85
2019-01-11T02:24:34.191Z,10.23
2019-01-11T02:27:03.864Z,10.58
2019-01-11T02:29:33.473Z,8.78
2019-01-11T02:32:03.212Z,11.40
2019-01-11T02:34:32.715Z,9.68
2019-01-11T02:37:02.168Z,9.75
2019-01-11T02:39:31.785Z,10.43
2019-01-11T02:42:01.357Z,10.20
2019-01-11T02:44:30.885Z,11.28
2019-01-11T02:47:02.279Z,8.50
2019-01-11T02:49:31.795Z,8.88
2019-01-11T02:52:01.399Z,9.50
2019-01-11T02:54:31.036Z,10.60
2019-01-11T02:57:00.520Z,8.55
2019-01-11T02:59:30.051Z,7.87
2019-01-11T03:01:59.644Z,9.55
2019-01-11T03:04:29.183Z,11.33
2019-01-11T03:06:58.934Z,9.93
2019-01-11T03:09:28.628Z,9.08
2019-01-11T03:11:58.388Z,8.88
2019-01-11T03:14:27.956Z,9.98
2019-01-11T03:16:57.496Z,9.88
2019-01-11T03:19:27.068Z,9.83
2019-01-11T03:21:56.720Z,9.23
2019-01-11T03:24:26.388Z,12.82
2019-01-11T03:26:56.001Z,9.60
2019-01-11T03:29:25.470Z,9.20
2019-01-11T03:31:54.944Z,10.32
2019-01-11T03:34:24.540Z,12.40
2019-01-11T03:36:53.991Z,10.45
2019-01-11T03:39:23.526Z,12.80
2019-01-11T03:41:59.004Z,10.43
2019-01-11T03:44:28.487Z,10.03
2019-01-11T03:46:58.082Z,10.08
2019-01-11T03:49:27.613Z,10.60
2019-01-11T03:51:57.043Z,11.33
2019-01-11T03:54:26.603Z,11.08
2019-01-11T03:56:56.164Z,10.48
2019-01-11T03:59:25.619Z,10.32
2019-01-11T04:01:55.118Z,9.00
2019-01-11T04:04:24.843Z,7.92
2019-01-11T04:06:54.559Z,10.32
2019-01-11T04:09:23.996Z,10.30
2019-01-11T04:11:53.705Z,8.78
2019-01-11T04:14:23.208Z,9.08
2019-01-11T04:16:52.735Z,8.98
2019-01-11T04:19:22.179Z,8.95
2019-01-11T04:22:26.050Z,9.75
2019-01-11T04:25:10.444Z,8.45
2019-01-11T04:27:39.939Z,8.58
2019-01-11T04:30:13.877Z,10.15
2019-01-11T04:32:43.459Z,13.78
2019-01-11T04:35:13.600Z,8.53
2019-01-11T04:37:43.308Z,11.45
2019-01-11T04:40:14.268Z,8.95
2019-01-11T04:42:43.790Z,11.65
2019-01-11T04:45:13.611Z,13.78
2019-01-11T04:47:43.206Z,11.38
2019-01-11T04:50:15.551Z,9.95
2019-01-11T04:52:46.241Z,10.28
2019-01-11T04:55:16.477Z,8.95
2019-01-11T04:57:46.004Z,9.03
2019-01-11T05:00:18.405Z,10.68
2019-01-11T05:02:47.915Z,10.55
2019-01-11T05:05:18.171Z,8.25
2019-01-11T05:07:47.902Z,12.75
2019-01-11T05:10:20.248Z,12.23
2019-01-11T05:12:49.708Z,10.03
2019-01-11T05:15:19.658Z,12.03
2019-01-11T05:17:49.316Z,10.23
2019-01-11T05:20:19.362Z,9.28
2019-01-11T05:22:48.898Z,10.93
2019-01-11T05:25:18.788Z,9.45
2019-01-11T05:27:48.402Z,11.43
2019-01-11T05:30:21.552Z,11.03
2019-01-11T05:32:51.060Z,13.43
2019-01-11T05:35:20.882Z,10.95
2019-01-11T05:37:52.070Z,10.53
2019-01-11T05:40:22.598Z,9.10
2019-01-11T05:42:52.279Z,9.15
2019-01-11T05:45:23.861Z,9.30
2019-01-11T05:47:53.386Z,9.95
2019-01-11T05:50:24.412Z,11.22
2019-01-11T05:52:54.139Z,12.10
2019-01-11T05:55:41.531Z,11.60
2019-01-11T05:58:29.823Z,11.33
2019-01-11T06:00:59.382Z,11.05
2019-01-11T06:03:28.892Z,11.83
2019-01-11T06:05:58.528Z,12.40
2019-01-11T06:08:29.361Z,12.65
2019-01-11T06:10:59.121Z,11.53
2019-01-11T06:13:28.726Z,11.08
2019-01-11T06:15:58.400Z,10.43
2019-01-11T06:18:27.993Z,12.63
2019-01-11T06:20:57.555Z,10.45
2019-01-11T06:23:26.975Z,11.63
2019-01-11T06:25:56.582Z,9.53
2019-01-11T06:28:26.258Z,12.37
2019-01-11T06:30:55.764Z,10.68
2019-01-11T06:33:25.839Z,9.23
2019-01-11T06:35:55.834Z,11.83
2019-01-11T06:38:25.612Z,13.48
2019-01-11T06:40:55.188Z,11.33
2019-01-11T06:43:25.058Z,10.75
2019-01-11T06:45:54.648Z,11.10
2019-01-11T06:48:41.614Z,12.35
2019-01-11T06:51:11.337Z,13.00
2019-01-11T06:53:41.174Z,11.50
2019-01-11T06:56:10.610Z,11.43
2019-01-11T06:58:40.169Z,13.38
2019-01-11T07:01:09.642Z,12.88
2019-01-11T07:03:39.345Z,11.03
2019-01-11T07:06:09.041Z,11.08
2019-01-11T07:08:38.582Z,10.30
2019-01-11T07:11:08.174Z,11.28
2019-01-11T07:13:37.703Z,9.25
2019-01-11T07:16:07.270Z,11.70
2019-01-11T07:18:36.754Z,11.57
2019-01-11T07:21:06.215Z,10.85
2019-01-11T07:23:35.798Z,12.75
2019-01-11T07:26:05.486Z,11.48
2019-01-11T07:28:35.559Z,11.03
2019-01-11T07:31:11.761Z,11.22
2019-01-11T07:33:41.486Z,13.18
2019-01-11T07:36:40.137Z,10.20
2019-01-11T07:39:30.951Z,10.85
2019-01-11T07:42:00.786Z,13.95
2019-01-11T07:44:30.401Z,10.43
2019-01-11T07:47:00.013Z,12.45
2019-01-11T07:49:29.928Z,12.60
2019-01-11T07:51:59.872Z,13.05
2019-01-11T07:54:29.989Z,11.18
2019-01-11T07:56:59.364Z,10.13
2019-01-11T07:59:29.248Z,10.80
2019-01-11T08:01:58.699Z,12.00
2019-01-11T08:04:28.192Z,11.88
2019-01-11T08:06:57.703Z,14.60
2019-01-11T08:09:27.146Z,12.53
2019-01-11T08:11:56.792Z,10.48
2019-01-11T08:14:26.252Z,15.63
2019-01-11T08:16:55.845Z,12.40
2019-01-11T08:19:25.291Z,12.78
2019-01-11T08:21:54.724Z,12.80
2019-01-11T08:24:24.184Z,12.28
2019-01-11T08:26:55.576Z,12.90
2019-01-11T08:29:25.090Z,12.20
2019-01-11T08:31:54.737Z,12.70
2019-01-11T08:34:24.240Z,12.10
2019-01-11T08:36:53.952Z,12.40
2019-01-11T08:39:23.515Z,15.45
2019-01-11T08:41:53.062Z,15.03
2019-01-11T08:44:22.554Z,13.20
2019-01-11T08:46:52.046Z,16.62
2019-01-11T08:49:21.676Z,12.78
2019-01-11T08:51:51.286Z,14.85
2019-01-11T08:54:20.958Z,13.18
2019-01-11T08:56:50.524Z,13.35
2019-01-11T08:59:20.081Z,16.05
2019-01-11T09:01:49.609Z,15.45
2019-01-11T09:04:19.143Z,19.73
2019-01-11T09:06:48.638Z,16.95
2019-01-11T09:09:18.251Z,15.60
2019-01-11T09:11:47.909Z,16.55
2019-01-11T09:14:45.650Z,14.33
2019-01-11T09:17:15.183Z,17.20
2019-01-11T09:19:44.722Z,13.83
2019-01-11T09:22:14.337Z,13.80
2019-01-11T09:24:43.929Z,18.75
2019-01-11T09:27:13.558Z,18.85
2019-01-11T09:29:43.064Z,19.02
2019-01-11T09:32:12.600Z,19.10
2019-01-11T09:34:42.243Z,21.60
2019-01-11T09:37:12.558Z,18.57
2019-01-11T09:39:42.207Z,13.40
2019-01-11T09:42:12.305Z,13.25
2019-01-11T09:44:44.680Z,13.55
2019-01-11T09:47:14.271Z,15.23
2019-01-11T09:49:43.918Z,16.17
2019-01-11T09:52:13.434Z,21.02
2019-01-11T09:54:43.197Z,17.17
2019-01-11T09:57:12.849Z,29.72
2019-01-11T09:59:42.737Z,22.17
2019-01-11T10:02:26.193Z,24.72
2019-01-11T10:04:55.770Z,20.50
2019-01-11T10:07:26.930Z,18.48
2019-01-11T10:09:56.625Z,17.55
2019-01-11T10:12:28.705Z,17.57
2019-01-11T10:14:58.273Z,18.10
2019-01-11T10:17:27.841Z,15.90
2019-01-11T10:19:57.511Z,13.22
2019-01-11T10:22:27.320Z,18.50
2019-01-11T10:24:57.070Z,20.17
2019-01-11T10:27:26.634Z,12.65
2019-01-11T10:29:56.226Z,13.40
2019-01-11T10:32:25.859Z,15.83
2019-01-11T10:34:55.411Z,14.03
2019-01-11T10:37:25.153Z,13.13
2019-01-11T10:39:54.830Z,15.13
2019-01-11T10:42:24.607Z,13.10
2019-01-11T10:44:54.349Z,13.88
2019-01-11T10:47:23.854Z,20.52
2019-01-11T10:49:53.552Z,20.03
2019-01-11T10:52:23.097Z,15.25
2019-01-11T10:54:52.740Z,18.07
2019-01-11T10:57:22.422Z,16.00
2019-01-11T10:59:52.156Z,14.50
2019-01-11T11:02:21.769Z,15.17
2019-01-11T11:04:51.283Z,15.03
2019-01-11T11:07:20.816Z,10.53
2019-01-11T11:09:50.643Z,13.93
2019-01-11T11:12:20.439Z,13.23
2019-01-11T11:14:50.061Z,12.87
2019-01-11T11:17:19.735Z,11.33
2019-01-11T11:19:50.118Z,12.03
2019-01-11T11:22:19.660Z,11.57
2019-01-11T11:24:49.263Z,13.50
2019-01-11T11:27:19.084Z,10.60
2019-01-11T11:29:48.840Z,11.95
2019-01-11T11:32:20.786Z,10.17
2019-01-11T11:34:50.597Z,8.98
2019-01-11T11:37:21.002Z,10.00
2019-01-11T11:39:50.845Z,10.77
2019-01-11T11:42:20.446Z,10.93
2019-01-11T11:44:50.202Z,8.70
2019-01-11T11:47:19.938Z,8.43
2019-01-11T11:49:49.690Z,9.20
2019-01-11T11:52:19.287Z,11.77
2019-01-11T11:54:48.955Z,13.80
2019-01-11T11:57:18.447Z,11.33
2019-01-11T11:59:48.165Z,12.87
2019-01-11T12:02:19.416Z,9.03
2019-01-11T12:04:49.279Z,12.77
2019-01-11T12:07:19.266Z,17.43
2019-01-11T12:09:48.746Z,19.10
2019-01-11T12:12:18.488Z,13.87
2019-01-11T12:14:48.215Z,12.90
2019-01-11T12:17:17.819Z,14.90
2019-01-11T12:19:47.728Z,11.07
2019-01-11T12:22:17.302Z,11.87
2019-01-11T12:24:47.058Z,9.67
2019-01-11T12:27:16.775Z,15.73
2019-01-11T12:29:46.559Z,16.00
2019-01-11T12:32:19.535Z,15.03
2019-01-11T12:34:48.084Z,12.60
2019-01-11T12:37:17.597Z,12.13
2019-01-11T12:39:47.705Z,11.00
2019-01-11T12:42:17.391Z,13.50
2019-01-11T12:44:47.317Z,18.67
2019-01-11T12:47:17.092Z,15.40
2019-01-11T12:49:47.350Z,13.93
2019-01-11T12:52:16.903Z,14.40
2019-01-11T12:54:46.420Z,13.80
2019-01-11T12:57:16.162Z,10.73
2019-01-11T12:59:45.766Z,11.60
2019-01-11T13:02:15.384Z,11.47
2019-01-11T13:04:45.386Z,11.83
2019-01-11T13:07:16.327Z,18.10
2019-01-11T13:09:46.077Z,15.00
2019-01-11T13:12:15.568Z,19.17
2019-01-11T13:14:45.362Z,26.77
2019-01-11T13:17:14.855Z,19.43
2019-01-11T13:19:44.976Z,12.30
2019-01-11T13:22:14.547Z,15.87
2019-01-11T13:24:44.073Z,12.03
2019-01-11T13:27:13.630Z,14.07
2019-01-11T13:29:43.536Z,12.13
2019-01-11T13:32:13.609Z,14.25
2019-01-11T13:34:43.125Z,14.93
2019-01-11T13:37:12.868Z,14.50
2019-01-11T13:39:42.652Z,12.55
2019-01-11T13:42:12.461Z,18.50
2019-01-11T13:44:42.169Z,17.93
2019-01-11T13:47:11.841Z,19.20
2019-01-11T13:49:41.525Z,15.77
2019-01-11T13:52:11.124Z,15.93
2019-01-11T13:54:40.747Z,17.40
2019-01-11T13:57:10.392Z,17.83
2019-01-11T13:59:41.611Z,13.93
2019-01-11T14:02:11.529Z,18.65
2019-01-11T14:04:41.542Z,12.90
2019-01-11T14:07:11.197Z,14.87
2019-01-11T14:09:40.747Z,17.42
2019-01-11T14:12:10.415Z,13.72
2019-01-11T14:14:39.994Z,13.88
2019-01-11T14:17:09.713Z,13.72
2019-01-11T14:19:39.188Z,10.25
2019-01-11T14:22:13.619Z,12.60
2019-01-11T14:24:40.164Z,10.43
2019-01-11T14:27:09.800Z,10.05
2019-01-11T14:29:40.313Z,12.43
2019-01-11T14:32:09.871Z,10.98
2019-01-11T14:34:39.424Z,11.10
2019-01-11T14:37:09.417Z,18.70
2019-01-11T14:39:39.268Z,11.50
2019-01-11T14:42:08.915Z,13.15
2019-01-11T14:44:38.609Z,8.63
2019-01-11T14:47:08.275Z,9.97
2019-01-11T14:49:38.079Z,11.03
2019-01-11T14:52:07.827Z,13.70
2019-01-11T14:54:37.614Z,11.07
2019-01-11T14:57:07.401Z,10.15
2019-01-11T14:59:37.244Z,7.10
2019-01-11T15:02:07.672Z,13.53
2019-01-11T15:04:38.001Z,12.67
2019-01-11T15:07:07.993Z,11.35
2019-01-11T15:09:37.715Z,10.15
2019-01-11T15:12:07.803Z,10.23
2019-01-11T15:14:37.749Z,10.07
2019-01-11T15:17:19.022Z,11.53
2019-01-11T15:19:50.408Z,12.83
2019-01-11T15:22:20.029Z,10.72
2019-01-11T15:24:49.668Z,19.98
2019-01-11T15:27:19.449Z,15.03
2019-01-11T15:29:49.027Z,17.87
2019-01-11T15:32:18.674Z,23.43
2019-01-11T15:34:48.924Z,27.60
2019-01-11T15:37:18.559Z,28.02
2019-01-11T15:39:48.794Z,21.73
2019-01-11T15:42:18.602Z,22.02
2019-01-11T15:44:48.316Z,23.65
2019-01-11T15:47:18.021Z,18.67
2019-01-11T15:49:48.661Z,18.12
2019-01-11T15:52:18.457Z,12.15
2019-01-11T15:54:48.049Z,17.02
2019-01-11T15:57:22.788Z,12.30
2019-01-11T16:00:03.574Z,14.63
2019-01-11T16:02:33.555Z,15.03
2019-01-11T16:05:03.526Z,15.47
2019-01-11T16:07:33.254Z,14.00
2019-01-11T16:10:09.364Z,14.60
2019-01-11T16:12:45.340Z,11.03
2019-01-11T16:15:42.804Z,13.65
2019-01-11T16:18:20.294Z,13.10
2019-01-11T16:20:50.060Z,15.08
2019-01-11T16:23:19.714Z,22.65
2019-01-11T16:25:49.275Z,18.07
2019-01-11T16:28:18.842Z,33.70
2019-01-11T16:30:48.952Z,50.73
2019-01-11T16:33:18.618Z,42.65
2019-01-11T16:35:48.265Z,30.68
2019-01-11T16:38:17.834Z,27.32
2019-01-11T16:40:47.426Z,20.85
2019-01-11T16:43:17.067Z,19.23
2019-01-11T16:45:46.586Z,17.15
2019-01-11T16:48:16.414Z,16.12
2019-01-11T16:50:46.248Z,11.85
2019-01-11T16:53:16.216Z,11.83
2019-01-11T16:55:46.567Z,16.55
2019-01-11T16:58:16.426Z,12.70
2019-01-11T17:00:46.079Z,14.63
2019-01-11T17:03:16.371Z,11.38
2019-01-11T17:05:46.095Z,17.17
2019-01-11T17:08:16.436Z,22.42
2019-01-11T17:10:46.118Z,17.07
2019-01-11T17:13:16.608Z,16.25
2019-01-11T17:15:46.303Z,16.42
2019-01-11T17:18:16.380Z,10.00
2019-01-11T17:20:46.903Z,13.30
2019-01-11T17:23:16.634Z,12.18
2019-01-11T17:25:46.815Z,12.25
2019-01-11T17:28:17.211Z,16.27
2019-01-11T17:30:46.976Z,13.98
2019-01-11T17:33:16.687Z,21.37
2019-01-11T17:35:47.681Z,32.08
2019-01-11T17:38:17.506Z,61.68
2019-01-11T17:40:47.306Z,32.90
2019-01-11T17:43:17.307Z,32.25
2019-01-11T17:45:46.959Z,23.18
2019-01-11T17:48:16.702Z,35.15
2019-01-11T17:50:46.444Z,33.78
2019-01-11T17:53:16.145Z,39.13
2019-01-11T17:55:46.280Z,23.85
2019-01-11T17:58:15.905Z,22.80
2019-01-11T18:00:45.628Z,33.00
2019-01-11T18:03:15.449Z,18.30
2019-01-11T18:05:45.313Z,14.68
2019-01-11T18:08:15.002Z,14.68
2019-01-11T18:10:44.558Z,25.30
2019-01-11T18:13:15.772Z,13.85
2019-01-11T18:15:46.634Z,31.57
2019-01-11T18:18:16.299Z,16.20
2019-01-11T18:20:45.895Z,17.02
2019-01-11T18:23:15.766Z,14.60
2019-01-11T18:25:45.633Z,18.37
2019-01-11T18:28:15.347Z,12.05
2019-01-11T18:30:45.169Z,10.40
2019-01-11T18:33:14.886Z,12.35
2019-01-11T18:35:44.741Z,14.90
2019-01-11T18:38:14.441Z,14.68
2019-01-11T18:40:44.289Z,14.05
2019-01-11T18:43:14.035Z,20.30
2019-01-11T18:45:43.846Z,14.18
2019-01-11T18:48:13.527Z,17.50
2019-01-11T18:50:43.330Z,17.07
2019-01-11T18:53:13.985Z,18.02
2019-01-11T18:55:44.167Z,19.32
2019-01-11T18:58:13.885Z,13.90
2019-01-11T19:00:43.598Z,14.13
2019-01-11T19:03:16.684Z,16.75
2019-01-11T19:05:46.545Z,18.10
2019-01-11T19:08:16.396Z,23.52
2019-01-11T19:10:46.262Z,20.00
2019-01-11T19:13:16.163Z,16.60
2019-01-11T19:15:45.822Z,17.75
2019-01-11T19:18:15.968Z,15.72
2019-01-11T19:20:45.652Z,12.93
2019-01-11T19:23:20.384Z,17.62
2019-01-11T19:25:47.220Z,16.15
2019-01-11T19:28:17.089Z,13.00
2019-01-11T19:30:46.746Z,14.13
2019-01-11T19:33:16.553Z,11.27
2019-01-11T19:35:46.218Z,13.10
2019-01-11T19:38:16.036Z,9.43
2019-01-11T19:40:45.834Z,10.40
2019-01-11T19:43:15.629Z,9.35
2019-01-11T19:45:45.756Z,9.37
2019-01-11T19:48:15.502Z,13.87
2019-01-11T19:50:45.182Z,16.23
2019-01-11T19:53:15.235Z,16.02
2019-01-11T19:55:45.018Z,15.73
2019-01-11T19:58:14.710Z,20.00
2019-01-11T20:00:44.343Z,14.83
2019-01-11T20:03:14.064Z,18.80
2019-01-11T20:05:44.263Z,20.07
2019-01-11T20:08:13.827Z,15.72
2019-01-11T20:10:43.871Z,13.28
2019-01-11T20:13:13.513Z,14.03
2019-01-11T20:15:43.391Z,17.40
2019-01-11T20:18:13.116Z,17.33
2019-01-11T20:20:42.906Z,17.12
2019-01-11T20:23:12.746Z,18.97
2019-01-11T20:25:42.434Z,14.80
2019-01-11T20:28:12.280Z,19.33
2019-01-11T20:30:42.016Z,11.10
2019-01-11T20:33:11.872Z,9.98
2019-01-11T20:35:41.648Z,9.03
2019-01-11T20:38:11.498Z,9.73
2019-01-11T20:40:41.540Z,9.93
2019-01-11T20:43:11.588Z,13.62
2019-01-11T20:45:41.599Z,12.68
2019-01-11T20:48:11.337Z,11.17
2019-01-11T20:50:41.336Z,14.70
2019-01-11T20:53:11.453Z,12.00
2019-01-11T20:55:41.119Z,20.73
2019-01-11T20:58:10.900Z,18.93
2019-01-11T21:00:40.797Z,12.37
2019-01-11T21:03:10.537Z,9.53
2019-01-11T21:05:40.724Z,10.77
2019-01-11T21:08:10.348Z,10.33
2019-01-11T21:10:40.096Z,8.93
2019-01-11T21:13:09.738Z,7.43
2019-01-11T21:15:39.559Z,8.90
2019-01-11T21:18:10.300Z,9.08
2019-01-11T21:20:43.020Z,7.72
2019-01-11T21:23:12.687Z,7.20
2019-01-11T21:25:42.357Z,7.45
2019-01-11T21:28:12.023Z,8.87
2019-01-11T21:30:41.782Z,9.85
2019-01-11T21:33:11.778Z,11.83
2019-01-11T21:35:41.755Z,50.47
2019-01-11T21:38:11.983Z,41.50
2019-01-11T21:40:42.267Z,32.60
2019-01-11T21:43:12.195Z,33.23
2019-01-11T21:45:41.955Z,16.53
2019-01-11T21:48:11.721Z,13.03
2019-01-11T21:50:41.919Z,9.33
2019-01-11T21:53:11.711Z,10.80
2019-01-11T21:55:41.313Z,9.33
2019-01-11T21:58:10.930Z,9.03
2019-01-11T22:00:45.203Z,8.13
2019-01-11T22:03:17.131Z,7.97
2019-01-11T22:05:47.043Z,7.53
2019-01-11T22:08:16.587Z,7.10
2019-01-11T22:10:46.494Z,7.87
2019-01-11T22:13:16.412Z,10.10
2019-01-11T22:15:46.188Z,12.63
2019-01-11T22:18:15.859Z,28.90
2019-01-11T22:20:45.539Z,18.33
2019-01-11T22:23:15.131Z,13.13
2019-01-11T22:25:45.089Z,24.13
2019-01-11T22:28:14.984Z,34.63
2019-01-11T22:30:44.807Z,22.33
2019-01-11T22:33:14.358Z,14.80
2019-01-11T22:35:43.862Z,8.63
2019-01-11T22:38:13.431Z,7.13
2019-01-11T22:40:43.005Z,11.57
2019-01-11T22:43:12.618Z,16.93
2019-01-11T22:45:42.262Z,11.77
2019-01-11T22:48:12.114Z,11.17
2019-01-11T22:50:42.183Z,9.43
2019-01-11T22:53:12.198Z,11.20
2019-01-11T22:55:42.071Z,10.72
2019-01-11T22:58:11.877Z,8.63
2019-01-11T23:01:28.817Z,10.80
2019-01-11T23:03:58.493Z,12.27
2019-01-11T23:07:14.688Z,10.27
2019-01-11T23:10:08.736Z,5.57
2019-01-11T23:13:14.668Z,10.30
2019-01-11T23:15:48.236Z,9.53
2019-01-11T23:18:23.904Z,8.58
2019-01-11T23:20:56.888Z,5.70
2019-01-11T23:23:26.539Z,7.73
2019-01-11T23:25:56.485Z,11.27
2019-01-11T23:28:26.176Z,6.83
2019-01-11T23:30:56.888Z,7.37
2019-01-11T23:33:26.553Z,10.20
2019-01-11T23:35:56.286Z,9.13
2019-01-11T23:38:26.341Z,16.03
2019-01-11T23:40:57.533Z,13.73
2019-01-11T23:43:27.043Z,13.73
2019-01-11T23:45:57.493Z,14.10
2019-01-11T23:48:27.100Z,12.97
2019-01-11T23:50:56.765Z,12.47
2019-01-11T23:53:26.322Z,12.23
2019-01-11T23:55:55.814Z,8.67
2019-01-11T23:58:25.921Z,6.80
